Time;durP1;ratioP1;P1;durP2;ratioP2;P2;SDS_P1;SDS_P2;PMS_P1;PMS_P2;Temp;Humidity;BMP_temperature;BMP_pressure;BME280_temperature;BME280_humidity;BME280_pressure;Samples;Min_cycle;Max_cycle;Signal;HPM_P1;HPM_P2
2022/08/17 02:21:24;;;;;;;7.85;5.32;;;;;16.20;95880.00;;;;8242439;28;20236;-63
2022/08/17 02:25:30;;;;;;;6.40;5.40;;;;;16.20;95882.00;;;;8253517;28;20599;-64
2022/08/17 02:29:33;;;;;;;10.98;5.85;;;;;16.30;95883.00;;;;8245248;28;20226;-64
2022/08/17 02:33:37;;;;;;;7.50;5.60;;;;;16.20;95875.00;;;;8242310;28;20313;-63
2022/08/17 02:37:47;;;;;;;8.35;5.65;;;;;16.20;95884.00;;;;8232732;28;20238;-64
2022/08/17 02:42:01;;;;;;;8.32;6.07;;;;;16.10;95869.00;;;;8256756;28;20279;-65
2022/08/17 02:46:04;;;;;;;6.68;5.88;;;;;15.90;95864.00;;;;8249992;28;20240;-64
2022/08/17 02:50:10;;;;;;;7.93;5.63;;;;;15.90;95856.00;;;;8237355;28;20674;-64
2022/08/17 02:54:14;;;;;;;7.97;6.35;;;;;15.80;95854.00;;;;8256968;28;20686;-64
2022/08/17 02:58:38;;;;;;;7.15;5.85;;;;;15.80;95859.00;;;;8254176;28;20296;-64
2022/08/17 03:02:42;;;;;;;5.95;5.25;;;;;15.90;95857.00;;;;8246246;28;20231;-64
2022/08/17 03:06:46;;;;;;;7.57;5.20;;;;;15.90;95853.00;;;;8236752;28;20236;-63
2022/08/17 03:10:50;;;;;;;7.90;6.47;;;;;15.90;95855.00;;;;8238891;28;20232;-63
2022/08/17 03:14:55;;;;;;;7.78;6.07;;;;;15.90;95854.00;;;;8240744;28;20692;-63
2022/08/17 03:18:58;;;;;;;7.65;5.70;;;;;15.90;95847.00;;;;8261038;28;20244;-63
2022/08/17 03:23:01;;;;;;;6.70;5.72;;;;;15.90;95854.00;;;;8287204;28;20256;-63
2022/08/17 03:27:34;;;;;;;11.68;7.10;;;;;15.80;95851.00;;;;8290938;28;20555;-63
2022/08/17 03:32:12;;;;;;;7.10;6.00;;;;;15.80;95862.00;;;;8296732;28;20220;-63
2022/08/17 03:36:43;;;;;;;7.60;5.57;;;;;15.70;95855.00;;;;8296090;28;20308;-63
2022/08/17 03:41:20;;;;;;;10.82;5.90;;;;;15.70;95860.00;;;;8296098;28;20622;-63
2022/08/17 03:59:39;;;;;;;11.82;6.50;;;;;15.60;95841.00;;;;8295611;28;20707;-63
2022/08/17 04:03:44;;;;;;;7.53;5.88;;;;;15.60;95850.00;;;;8296313;28;20273;-63
2022/08/17 04:08:18;;;;;;;9.40;5.97;;;;;15.60;95852.00;;;;8293449;28;20229;-63
2022/08/17 04:12:55;;;;;;;11.00;6.10;;;;;15.60;95860.00;;;;8296004;28;20307;-63
2022/08/17 04:16:58;;;;;;;8.02;5.82;;;;;15.50;95857.00;;;;8294475;28;20301;-63
2022/08/17 04:21:02;;;;;;;8.75;6.05;;;;;15.60;95862.00;;;;8295269;28;20307;-63
2022/08/17 04:25:09;;;;;;;10.88;6.90;;;;;15.60;95869.00;;;;8295777;28;20224;-63
2022/08/17 04:29:12;;;;;;;13.18;6.68;;;;;15.70;95861.00;;;;8295107;28;20260;-63
2022/08/17 04:33:49;;;;;;;12.32;6.85;;;;;15.70;95868.00;;;;8295372;28;20220;-63
2022/08/17 04:38:29;;;;;;;9.38;6.15;;;;;15.80;95881.00;;;;8282645;28;20223;-63
2022/08/17 04:43:05;;;;;;;8.85;6.00;;;;;15.80;95895.00;;;;8294861;28;20244;-63
2022/08/17 04:47:39;;;;;;;14.25;6.47;;;;;15.90;95890.00;;;;8294341;28;20288;-63
2022/08/17 04:52:16;;;;;;;7.68;5.97;;;;;16.00;95883.00;;;;8294929;28;20258;-63
2022/08/17 04:57:14;;;;;;;6.80;6.10;;;;;16.10;95889.00;;;;8294864;28;20278;-63
2022/08/17 05:01:49;;;;;;;6.07;5.47;;;;;16.30;95888.00;;;;8292274;28;20224;-63
2022/08/17 05:06:26;;;;;;;7.78;6.47;;;;;16.50;95875.00;;;;8294538;28;20222;-64
2022/08/17 05:10:33;;;;;;;7.80;6.40;;;;;16.60;95879.00;;;;8294438;28;20217;-64
2022/08/17 05:15:14;;;;;;;7.40;5.22;;;;;16.80;95894.00;;;;8293850;28;20233;-63
2022/08/17 05:19:17;;;;;;;6.15;5.55;;;;;17.00;95888.00;;;;8293809;28;20272;-63
2022/08/17 05:23:57;;;;;;;9.07;6.22;;;;;17.20;95880.00;;;;8287253;28;20326;-64
2022/08/17 05:28:32;;;;;;;10.68;6.07;;;;;17.30;95882.00;;;;8293773;28;20222;-63
2022/08/17 05:33:09;;;;;;;6.80;6.10;;;;;17.30;95889.00;;;;8292544;28;20267;-63
2022/08/17 05:37:44;;;;;;;13.23;5.60;;;;;17.50;95906.00;;;;8294289;28;20226;-64
2022/08/17 05:42:20;;;;;;;6.85;5.35;;;;;17.70;95903.00;;;;8293120;28;20699;-64
2022/08/17 05:46:35;;;;;;;6.10;5.50;;;;;18.10;95897.00;;;;8293559;28;20297;-64
2022/08/17 05:51:12;;;;;;;11.40;6.13;;;;;18.40;95892.00;;;;8299017;28;20313;-64
2022/08/17 05:55:46;;;;;;;6.20;5.60;;;;;18.80;95896.00;;;;8299115;28;20228;-64
2022/08/17 06:00:20;;;;;;;7.57;5.90;;;;;19.00;95886.00;;;;8297055;28;20734;-63
2022/08/17 06:05:04;;;;;;;6.55;5.85;;;;;19.20;95882.00;;;;8298910;28;20260;-64
2022/08/17 06:09:39;;;;;;;5.55;5.00;;;;;19.40;95882.00;;;;8297618;28;20272;-64
2022/08/17 06:14:14;;;;;;;6.80;5.22;;;;;19.90;95881.00;;;;8297555;28;20608;-64
2022/08/17 06:18:20;;;;;;;9.40;5.05;;;;;20.40;95882.00;;;;8297861;28;20233;-64
2022/08/17 06:22:58;;;;;;;8.07;4.93;;;;;21.00;95889.00;;;;8285462;28;20247;-64
2022/08/17 06:27:34;;;;;;;7.70;5.75;;;;;21.60;95889.00;;;;8296088;28;20229;-64
2022/08/17 06:31:40;;;;;;;6.95;4.60;;;;;22.20;95896.00;;;;8296109;28;20313;-64
2022/08/17 06:36:23;;;;;;;6.88;4.30;;;;;22.60;95907.00;;;;8297347;28;20230;-66
2022/08/17 06:40:57;;;;;;;6.13;4.70;;;;;22.90;95904.00;;;;8298157;28;20263;-66
2022/08/17 06:45:31;;;;;;;4.40;4.00;;;;;23.30;95911.00;;;;8296556;28;20691;-66
2022/08/17 06:50:04;;;;;;;4.65;4.25;;;;;23.50;95917.00;;;;8296252;28;20608;-65
2022/08/17 06:54:15;;;;;;;5.28;3.97;;;;;23.60;95918.00;;;;8277191;28;20297;-66
2022/08/17 06:58:21;;;;;;;4.32;3.95;;;;;23.80;95928.00;;;;8294954;28;20233;-66
2022/08/17 07:02:57;;;;;;;4.88;4.28;;;;;24.10;95928.00;;;;8296966;28;20222;-66
2022/08/17 07:12:11;;;;;;;5.32;4.15;;;;;25.10;95934.00;;;;8295698;28;20249;-66
2022/08/17 07:16:41;;;;;;;7.72;4.07;;;;;25.80;95931.00;;;;8295825;28;20243;-66
2022/08/17 07:26:06;;;;;;;4.80;3.50;;;;;27.60;95946.00;;;;8292543;28;20240;-65
2022/08/17 07:30:40;;;;;;;4.78;3.70;;;;;28.60;95944.00;;;;8296001;28;20556;-65
2022/08/17 07:35:16;;;;;;;4.45;3.03;;;;;29.30;95949.00;;;;8284300;28;20562;-66
2022/08/17 07:39:49;;;;;;;10.90;3.10;;;;;30.10;95950.00;;;;8291501;28;20241;-66
2022/08/17 07:44:26;;;;;;;3.40;3.13;;;;;31.10;95964.00;;;;8291890;28;20271;-66
2022/08/17 07:53:53;;;;;;;5.55;3.00;;;;;31.80;95962.00;;;;8285010;28;20245;-66
2022/08/17 07:58:27;;;;;;;5.10;3.58;;;;;32.30;95965.00;;;;8295712;28;20229;-67
2022/08/17 08:03:12;;;;;;;3.17;2.80;;;;;32.60;95971.00;;;;8295201;28;20693;-67
2022/08/17 08:07:43;;;;;;;3.67;2.63;;;;;33.30;95988.00;;;;8292055;28;20682;-67
2022/08/17 08:11:47;;;;;;;3.47;3.00;;;;;33.80;95989.00;;;;8290703;28;20305;-68
2022/08/17 08:16:25;;;;;;;9.10;2.88;;;;;34.10;95984.00;;;;8295272;28;20271;-67
2022/08/17 08:20:35;;;;;;;3.42;2.80;;;;;34.50;95986.00;;;;8292872;28;20234;-67
2022/08/17 08:25:22;;;;;;;5.97;3.13;;;;;34.60;95990.00;;;;8288783;28;20260;-65
2022/08/17 08:30:08;;;;;;;4.32;2.50;;;;;34.90;95991.00;;;;8277814;28;20674;-65
2022/08/17 08:34:22;;;;;;;3.35;2.80;;;;;35.00;95991.00;;;;8294427;28;20249;-65
2022/08/17 08:38:53;;;;;;;3.00;2.65;;;;;35.10;95984.00;;;;8294020;28;20226;-66
2022/08/17 08:43:06;;;;;;;3.88;2.50;;;;;35.50;95987.00;;;;8294477;28;20562;-65
2022/08/17 08:47:43;;;;;;;3.15;2.92;;;;;36.00;95996.00;;;;8293645;28;20301;-66
2022/08/17 08:51:54;;;;;;;5.85;2.60;;;;;36.30;95997.00;;;;8293875;28;20221;-65
2022/08/17 08:56:05;;;;;;;3.05;2.47;;;;;36.70;96011.00;;;;8294774;28;20313;-66
2022/08/17 09:00:38;;;;;;;3.92;2.63;;;;;36.80;96006.00;;;;8288842;28;20301;-66
2022/08/17 09:05:17;;;;;;;5.25;2.60;;;;;36.50;95998.00;;;;8294193;28;20222;-66
2022/08/17 09:09:49;;;;;;;3.70;2.72;;;;;36.30;95992.00;;;;8293552;28;20317;-66
2022/08/17 09:14:20;;;;;;;3.90;2.60;;;;;36.50;95988.00;;;;8294189;28;20552;-66
2022/08/17 09:19:01;;;;;;;4.28;2.30;;;;;36.90;95993.00;;;;8280836;28;20238;-66
2022/08/17 09:23:37;;;;;;;7.47;3.30;;;;;37.30;95984.00;;;;8296482;28;20276;-65
2022/08/17 09:27:52;;;;;;;7.78;2.50;;;;;37.20;95995.00;;;;8290945;28;20635;-66
2022/08/17 09:31:57;;;;;;;8.07;2.50;;;;;37.20;95975.00;;;;8299789;28;20271;-66
2022/08/17 09:36:34;;;;;;;4.22;2.20;;;;;36.80;95975.00;;;;8300067;28;20304;-65
2022/08/17 09:41:13;;;;;;;3.10;2.33;;;;;37.00;95973.00;;;;8300307;28;20218;-65
2022/08/17 09:45:30;;;;;;;2.35;2.25;;;;;37.10;95962.00;;;;8298646;28;20305;-66
2022/08/17 09:49:41;;;;;;;2.58;2.35;;;;;37.10;95961.00;;;;8299905;28;20328;-65
2022/08/17 09:53:48;;;;;;;2.50;2.30;;;;;37.40;95952.00;;;;8299040;28;20218;-66
2022/08/17 09:58:30;;;;;;;2.35;2.20;;;;;37.60;95961.00;;;;8294886;28;20249;-66
2022/08/17 10:03:01;;;;;;;3.05;2.10;;;;;37.70;95961.00;;;;8297302;28;20617;-69
2022/08/17 10:07:42;;;;;;;2.65;2.45;;;;;38.00;95971.00;;;;8298914;28;20275;-68
2022/08/17 10:12:23;;;;;;;2.53;2.35;;;;;38.30;95961.00;;;;8297947;28;20231;-69
2022/08/17 10:16:54;;;;;;;5.28;2.63;;;;;38.30;95970.00;;;;8297636;28;20702;-68
2022/08/17 10:30:16;;;;;;;6.47;2.35;;;;;39.40;95950.00;;;;8297626;28;20305;-65
2022/08/17 10:35:00;;;;;;;2.75;2.50;;;;;39.50;95959.00;;;;8296216;28;20373;-65
2022/08/17 10:39:29;;;;;;;4.75;2.53;;;;;39.30;95960.00;;;;8297744;28;20731;-65
2022/08/17 10:44:03;;;;;;;2.67;2.22;;;;;39.30;95965.00;;;;8296892;28;20226;-65
2022/08/17 10:48:33;;;;;;;4.43;2.20;;;;;39.20;95970.00;;;;8297215;28;20280;-64
2022/08/17 10:53:03;;;;;;;2.50;2.30;;;;;39.20;95964.00;;;;8296755;28;20312;-67
2022/08/17 10:57:41;;;;;;;4.05;2.50;;;;;39.20;95954.00;;;;8296889;28;20300;-66
2022/08/17 11:02:20;;;;;;;3.38;2.35;;;;;39.20;95947.00;;;;8296841;28;20640;-65
2022/08/17 11:06:51;;;;;;;2.80;2.13;;;;;39.00;95953.00;;;;8297506;28;20707;-65
2022/08/17 11:11:11;;;;;;;3.40;2.20;;;;;39.20;95950.00;;;;8296646;28;20610;-65
2022/08/17 11:15:43;;;;;;;6.00;2.40;;;;;38.70;95944.00;;;;8297588;28;20214;-64
2022/08/17 11:20:14;;;;;;;4.07;2.35;;;;;39.10;95946.00;;;;8295634;28;20234;-66
2022/08/17 11:24:20;;;;;;;5.90;3.00;;;;;39.20;95940.00;;;;8296350;28;20224;-65
2022/08/17 11:28:55;;;;;;;4.80;2.17;;;;;39.40;95931.00;;;;8296289;28;20224;-65
2022/08/17 11:32:59;;;;;;;5.82;2.30;;;;;39.60;95927.00;;;;8297176;28;20345;-65
2022/08/17 11:37:40;;;;;;;3.50;2.40;;;;;39.30;95938.00;;;;8295630;28;20256;-63
2022/08/17 11:42:16;;;;;;;5.38;2.35;;;;;38.90;95946.00;;;;8296453;28;20309;-63
2022/08/17 11:51:35;;;;;;;2.78;2.13;;;;;39.90;95960.00;;;;8295810;28;20218;-63
2022/08/17 11:56:05;;;;;;;4.72;2.17;;;;;40.40;95972.00;;;;8295545;28;20220;-64
2022/08/17 12:00:30;;;;;;;4.93;2.70;;;;;40.50;95956.00;;;;8296137;28;20706;-61
2022/08/17 12:04:36;;;;;;;3.53;2.67;;;;;40.20;95964.00;;;;8295080;28;20714;-65
2022/08/17 12:09:13;;;;;;;2.80;2.60;;;;;39.50;95962.00;;;;8295651;28;20232;-65
2022/08/17 12:13:46;;;;;;;4.68;2.45;;;;;38.90;95953.00;;;;8294993;28;20214;-66
2022/08/17 12:18:23;;;;;;;6.15;2.35;;;;;38.50;95949.00;;;;8294392;28;20226;-66
2022/08/17 12:27:48;;;;;;;2.10;2.00;;;;;38.00;95947.00;;;;8294669;28;20320;-68
2022/08/17 12:32:16;;;;;;;2.38;2.20;;;;;37.40;95937.00;;;;8294630;28;20217;-68
2022/08/17 12:36:45;;;;;;;4.40;2.42;;;;;37.40;95934.00;;;;8294736;28;20221;-67
2022/08/17 12:40:54;;;;;;;2.50;2.30;;;;;37.30;95947.00;;;;8294111;28;20643;-68
2022/08/17 12:45:28;;;;;;;4.75;2.38;;;;;37.10;95942.00;;;;8294698;28;20249;-68
2022/08/17 12:50:14;;;;;;;3.05;2.20;;;;;36.60;95939.00;;;;8290598;28;20359;-68
2022/08/17 12:55:10;;;;;;;4.85;2.58;;;;;36.20;95947.00;;;;8288137;28;20226;-68
2022/08/17 12:59:43;;;;;;;3.95;2.53;;;;;35.80;95942.00;;;;8299488;28;20297;-68
2022/08/17 13:03:52;;;;;;;2.90;2.17;;;;;35.60;95937.00;;;;8280457;28;20241;-69
2022/08/17 13:08:24;;;;;;;4.15;2.47;;;;;35.50;95922.00;;;;8299486;28;20686;-71
2022/08/17 13:13:03;;;;;;;2.70;2.50;;;;;35.60;95929.00;;;;8287817;28;20728;-69
2022/08/17 13:17:34;;;;;;;2.95;2.25;;;;;35.90;95927.00;;;;8297159;28;20218;-69
2022/08/17 13:22:13;;;;;;;3.88;2.50;;;;;36.20;95916.00;;;;8298500;28;20320;-67
2022/08/17 13:26:48;;;;;;;6.38;2.47;;;;;36.60;95911.00;;;;8299902;28;20614;-67
2022/08/17 13:31:25;;;;;;;7.30;2.47;;;;;37.00;95917.00;;;;8299114;28;20268;-67
2022/08/17 13:35:36;;;;;;;4.35;2.72;;;;;37.40;95924.00;;;;8300325;28;20603;-71
2022/08/17 13:39:44;;;;;;;5.82;3.03;;;;;37.50;95928.00;;;;8281609;28;20249;-68
2022/08/17 13:44:27;;;;;;;4.03;2.28;;;;;37.70;95909.00;;;;8298247;28;20233;-68
2022/08/17 13:49:02;;;;;;;2.70;2.50;;;;;38.00;95901.00;;;;8299457;28;20304;-68
2022/08/17 13:53:43;;;;;;;6.13;2.60;;;;;38.80;95893.00;;;;8293904;28;20217;-68
2022/08/17 13:58:22;;;;;;;11.60;2.88;;;;;39.80;95890.00;;;;8298640;28;20296;-69
2022/08/17 14:02:56;;;;;;;3.58;2.38;;;;;40.00;95882.00;;;;8299537;28;20590;-68
2022/08/17 14:07:33;;;;;;;4.05;2.45;;;;;40.50;95897.00;;;;8298833;28;20222;-67
2022/08/17 14:11:54;;;;;;;2.75;2.47;;;;;40.90;95886.00;;;;8299399;28;20598;-67
2022/08/17 14:16:32;;;;;;;10.20;2.53;;;;;41.10;95884.00;;;;8288462;28;20320;-67
2022/08/17 14:21:07;;;;;;;2.60;2.40;;;;;41.00;95874.00;;;;8290239;28;20226;-67
2022/08/17 14:30:27;;;;;;;3.45;2.47;;;;;41.70;95882.00;;;;8296853;28;20235;-67
2022/08/17 14:35:05;;;;;;;5.07;2.47;;;;;41.70;95872.00;;;;8298017;28;20222;-71
2022/08/17 14:39:39;;;;;;;2.50;2.28;;;;;41.70;95877.00;;;;8297308;28;20244;-67
2022/08/17 14:43:42;;;;;;;4.78;2.40;;;;;41.70;95878.00;;;;8297860;28;20606;-67
2022/08/17 14:47:46;;;;;;;2.83;2.58;;;;;41.80;95865.00;;;;8297884;28;20325;-67
2022/08/17 14:52:20;;;;;;;2.40;2.20;;;;;41.90;95868.00;;;;8300079;28;20312;-67
2022/08/17 14:56:59;;;;;;;4.68;2.58;;;;;42.20;95845.00;;;;8297120;28;20242;-67
2022/08/17 15:01:23;;;;;;;3.65;2.20;;;;;42.40;95843.00;;;;8297394;28;20284;-68
2022/08/17 15:05:57;;;;;;;5.55;2.60;;;;;42.30;95847.00;;;;8294376;28;20297;-69
2022/08/17 15:10:34;;;;;;;4.22;2.28;;;;;42.30;95846.00;;;;8295751;28;20323;-69
2022/08/17 15:14:55;;;;;;;3.60;2.17;;;;;42.30;95842.00;;;;8296899;28;20268;-69
2022/08/17 15:19:30;;;;;;;5.40;2.50;;;;;42.30;95831.00;;;;8295277;28;20225;-69
2022/08/17 15:23:33;;;;;;;2.60;2.40;;;;;42.10;95825.00;;;;8295404;28;20704;-68
2022/08/17 15:28:10;;;;;;;2.53;2.33;;;;;42.00;95816.00;;;;8296154;28;20647;-68
2022/08/17 15:32:50;;;;;;;2.40;2.25;;;;;41.80;95820.00;;;;8295242;28;20218;-68
2022/08/17 15:37:24;;;;;;;3.00;2.33;;;;;41.50;95837.00;;;;8295820;28;20222;-68
2022/08/17 15:42:03;;;;;;;3.72;2.17;;;;;41.10;95823.00;;;;8295472;28;20229;-69
2022/08/17 15:46:37;;;;;;;2.38;2.17;;;;;40.40;95834.00;;;;8295709;28;20217;-70
2022/08/17 15:51:14;;;;;;;3.35;2.28;;;;;40.20;95845.00;;;;8295419;28;20237;-67
2022/08/17 15:55:48;;;;;;;3.08;2.58;;;;;40.30;95847.00;;;;8295595;28;20218;-68
2022/08/17 16:00:26;;;;;;;3.15;2.20;;;;;40.60;95846.00;;;;8293457;28;20222;-67
2022/08/17 16:05:04;;;;;;;4.65;2.40;;;;;40.30;95849.00;;;;8295129;28;20225;-67
2022/08/17 16:09:38;;;;;;;3.88;2.28;;;;;39.80;95849.00;;;;8294891;28;20275;-68
2022/08/17 16:14:12;;;;;;;2.53;2.33;;;;;39.30;95856.00;;;;8294818;28;20621;-67
2022/08/17 16:18:47;;;;;;;4.38;2.42;;;;;38.60;95855.00;;;;8284578;28;20302;-68
2022/08/17 16:23:25;;;;;;;2.60;2.40;;;;;37.90;95851.00;;;;8292929;28;20699;-68
2022/08/17 16:28:04;;;;;;;2.65;2.40;;;;;37.60;95855.00;;;;8293967;28;20220;-67
2022/08/17 16:32:38;;;;;;;3.47;2.50;;;;;37.40;95849.00;;;;8294587;28;20297;-67
2022/08/17 16:37:16;;;;;;;3.72;2.47;;;;;37.30;95850.00;;;;8293259;28;20300;-66
2022/08/17 16:41:53;;;;;;;3.90;2.15;;;;;37.10;95846.00;;;;8294642;28;20317;-66
2022/08/17 16:46:32;;;;;;;3.63;2.70;;;;;36.70;95854.00;;;;8294259;28;20297;-67
2022/08/17 16:50:57;;;;;;;2.70;2.40;;;;;36.30;95850.00;;;;8293883;28;20305;-67
2022/08/17 16:55:35;;;;;;;3.50;2.60;;;;;35.90;95848.00;;;;8294891;28;20214;-67
2022/08/17 17:00:11;;;;;;;2.63;2.30;;;;;35.70;95840.00;;;;8283902;28;20248;-67
2022/08/17 17:04:49;;;;;;;7.32;2.65;;;;;35.60;95845.00;;;;8294407;28;20279;-67
2022/08/17 17:09:26;;;;;;;4.28;2.38;;;;;35.40;95845.00;;;;8294496;28;20272;-68
2022/08/17 17:14:00;;;;;;;8.98;2.50;;;;;35.30;95846.00;;;;8294558;28;20259;-68
2022/08/17 17:18:42;;;;;;;8.70;3.10;;;;;35.20;95838.00;;;;8293177;28;20297;-69
2022/08/17 17:23:06;;;;;;;4.20;2.53;;;;;35.00;95840.00;;;;8294510;28;20308;-68
2022/08/17 17:27:39;;;;;;;4.85;2.70;;;;;34.80;95841.00;;;;8293070;28;20240;-68
2022/08/17 17:32:16;;;;;;;6.65;2.50;;;;;34.50;95829.00;;;;8292611;28;20240;-68
2022/08/17 17:36:50;;;;;;;5.30;2.78;;;;;34.00;95816.00;;;;8291887;28;20218;-70
2022/08/17 17:41:30;;;;;;;8.15;3.25;;;;;33.60;95816.00;;;;8293971;28;20301;-70
2022/08/17 17:46:03;;;;;;;2.83;2.60;;;;;33.00;95829.00;;;;8298032;28;20225;-69
2022/08/17 17:50:48;;;;;;;3.90;3.00;;;;;32.50;95824.00;;;;8299780;28;20312;-70
2022/08/17 17:55:40;;;;;;;3.88;2.78;;;;;32.10;95826.00;;;;8298670;28;20551;-70
2022/08/17 18:00:10;;;;;;;8.32;2.70;;;;;31.70;95828.00;;;;8231099;28;20231;-70
2022/08/17 18:04:42;;;;;;;3.90;2.70;;;;;31.30;95820.00;;;;8230606;28;20368;-70
2022/08/17 18:09:13;;;;;;;4.35;2.92;;;;;30.80;95819.00;;;;8291072;28;20230;-70
2022/08/17 18:13:55;;;;;;;5.05;2.70;;;;;30.40;95812.00;;;;8299540;28;20218;-70
2022/08/17 18:18:36;;;;;;;11.20;3.17;;;;;29.90;95800.00;;;;8288407;28;20222;-70
2022/08/17 18:22:39;;;;;;;7.85;3.42;;;;;29.60;95809.00;;;;8298036;28;20233;-71
2022/08/17 18:32:23;;;;;;;6.60;3.40;;;;;28.80;95794.00;;;;8298427;28;20347;-68
2022/08/17 18:36:49;;;;;;;10.15;3.58;;;;;28.50;95800.00;;;;8298142;28;20228;-68
2022/08/17 18:41:29;;;;;;;10.70;3.67;;;;;28.30;95799.00;;;;8296706;28;20230;-69
2022/08/17 18:46:14;;;;;;;7.50;3.88;;;;;28.00;95801.00;;;;8297900;28;20300;-68
2022/08/17 18:50:40;;;;;;;5.90;3.47;;;;;27.70;95804.00;;;;8297469;28;20305;-68
2022/08/17 18:55:14;;;;;;;14.38;3.50;;;;;27.50;95798.00;;;;8296731;28;20222;-70
2022/08/17 18:59:48;;;;;;;7.35;3.65;;;;;27.20;95797.00;;;;8297047;28;20232;-71
2022/08/17 19:03:51;;;;;;;14.75;3.90;;;;;27.20;95807.00;;;;8298307;28;20218;-70
2022/08/17 19:08:32;;;;;;;18.77;4.20;;;;;27.30;95806.00;;;;8297376;28;20301;-72
2022/08/17 19:13:09;;;;;;;12.77;4.10;;;;;27.30;95809.00;;;;8296965;28;20620;-71
2022/08/17 19:17:41;;;;;;;12.13;4.03;;;;;27.50;95805.00;;;;8296853;28;20264;-70
2022/08/17 19:22:22;;;;;;;6.68;3.42;;;;;27.60;95802.00;;;;8296997;28;20297;-70
2022/08/17 19:26:38;;;;;;;6.82;3.63;;;;;27.60;95813.00;;;;8296234;28;20233;-70
2022/08/17 19:31:12;;;;;;;8.50;3.60;;;;;27.60;95799.00;;;;8297173;28;20214;-70
2022/08/17 19:35:24;;;;;;;3.83;3.45;;;;;27.50;95807.00;;;;8296107;28;20325;-71
2022/08/17 19:39:56;;;;;;;9.55;3.55;;;;;27.40;95802.00;;;;8296861;28;20246;-71
2022/08/17 19:44:27;;;;;;;6.38;3.70;;;;;27.40;95803.00;;;;8295521;28;20221;-67
2022/08/17 19:49:11;;;;;;;3.60;3.30;;;;;27.30;95790.00;;;;8297335;28;20225;-67
2022/08/17 19:53:47;;;;;;;4.25;3.58;;;;;27.30;95786.00;;;;8296225;28;20248;-67
2022/08/17 19:58:32;;;;;;;5.60;3.67;;;;;27.30;95790.00;;;;8287610;28;20300;-73
2022/08/17 20:03:02;;;;;;;5.68;3.47;;;;;27.20;95799.00;;;;8295087;28;20305;-77
2022/08/17 20:07:37;;;;;;;12.57;4.00;;;;;27.20;95815.00;;;;8295028;28;20221;-75
2022/08/17 20:12:07;;;;;;;4.18;3.53;;;;;27.20;95828.00;;;;8295893;28;20247;-75
2022/08/17 20:16:42;;;;;;;6.68;3.47;;;;;27.10;95829.00;;;;8295464;28;20228;-74
2022/08/17 20:21:20;;;;;;;7.35;3.53;;;;;27.10;95830.00;;;;8295393;28;20218;-73
2022/08/17 20:30:42;;;;;;;8.60;4.13;;;;;26.90;95824.00;;;;8295684;28;20236;-68
2022/08/17 20:35:21;;;;;;;4.20;3.67;;;;;26.80;95835.00;;;;8294924;28;20240;-69
2022/08/17 20:39:31;;;;;;;4.68;3.75;;;;;26.70;95835.00;;;;8294592;28;20296;-70
2022/08/17 20:44:03;;;;;;;5.95;3.50;;;;;26.70;95846.00;;;;8295548;28;20618;-70
2022/08/17 20:48:43;;;;;;;7.78;3.97;;;;;26.70;95843.00;;;;8294535;28;20263;-69
2022/08/17 20:53:15;;;;;;;4.85;3.90;;;;;26.70;95838.00;;;;8293749;28;20280;-69
2022/08/17 20:57:46;;;;;;;9.90;4.22;;;;;26.60;95839.00;;;;8294426;28;20571;-71
2022/08/17 21:02:20;;;;;;;6.20;3.80;;;;;26.60;95840.00;;;;8294672;28;20236;-71
2022/08/17 21:06:25;;;;;;;9.88;4.07;;;;;26.60;95834.00;;;;8293934;28;20556;-70
2022/08/17 21:10:37;;;;;;;4.25;3.78;;;;;26.60;95827.00;;;;8292907;28;20229;-68
2022/08/17 21:15:00;;;;;;;8.48;4.10;;;;;26.50;95824.00;;;;8293924;28;20228;-68
2022/08/17 21:19:28;;;;;;;5.10;4.03;;;;;26.60;95821.00;;;;8296816;28;20714;-69
2022/08/17 21:23:53;;;;;;;5.78;3.90;;;;;26.60;95808.00;;;;8300302;28;20229;-69
2022/08/17 21:28:15;;;;;;;5.93;4.30;;;;;26.50;95813.00;;;;8299937;28;20683;-70
2022/08/17 21:32:29;;;;;;;6.78;4.00;;;;;26.50;95803.00;;;;8300654;28;20223;-70
2022/08/17 21:37:12;;;;;;;5.38;3.90;;;;;26.50;95798.00;;;;8300854;28;20230;-70
2022/08/17 21:41:20;;;;;;;8.38;3.90;;;;;26.50;95801.00;;;;8298875;28;20309;-70
2022/08/17 21:45:52;;;;;;;6.15;4.10;;;;;26.50;95796.00;;;;8299383;28;20240;-70
2022/08/17 21:50:13;;;;;;;7.90;4.40;;;;;26.40;95783.00;;;;8299393;28;20257;-69
2022/08/17 21:54:30;;;;;;;4.35;3.90;;;;;26.40;95775.00;;;;8299489;28;20210;-69
2022/08/17 21:58:58;;;;;;;7.82;4.05;;;;;26.30;95780.00;;;;8299850;28;20308;-69
2022/08/17 22:03:03;;;;;;;8.50;4.47;;;;;26.30;95780.00;;;;8297750;28;20608;-70
2022/08/17 22:07:09;;;;;;;4.78;4.28;;;;;26.30;95785.00;;;;8299762;28;20244;-70
2022/08/17 22:11:51;;;;;;;4.25;3.85;;;;;26.20;95786.00;;;;8298608;28;20558;-69
2022/08/17 22:16:13;;;;;;;9.13;4.30;;;;;26.20;95794.00;;;;8299558;28;20272;-69
2022/08/17 22:21:06;;;;;;;5.18;4.32;;;;;26.30;95789.00;;;;8298766;28;20236;-69
2022/08/17 22:25:20;;;;;;;6.50;4.25;;;;;26.30;95789.00;;;;8298829;28;20228;-69
2022/08/17 22:29:43;;;;;;;5.97;4.15;;;;;26.20;95794.00;;;;8296930;28;20605;-69
2022/08/17 22:33:50;;;;;;;11.60;4.30;;;;;26.20;95790.00;;;;8298757;28;20308;-69
2022/08/17 22:37:53;;;;;;;5.60;3.95;;;;;26.20;95797.00;;;;8298733;28;20264;-70
2022/08/17 22:41:58;;;;;;;5.47;3.88;;;;;26.10;95797.00;;;;8298660;28;20321;-70
2022/08/17 22:46:09;;;;;;;9.13;4.30;;;;;26.10;95794.00;;;;8298350;28;20225;-71
2022/08/17 22:50:25;;;;;;;4.25;3.83;;;;;26.10;95787.00;;;;8298278;28;20268;-70
2022/08/17 23:03:17;;;;;;;4.63;4.00;;;;;26.00;95783.00;;;;8297725;28;20225;-71
2022/08/17 23:07:52;;;;;;;9.15;3.92;;;;;25.90;95785.00;;;;8298168;28;20256;-70
2022/08/17 23:11:57;;;;;;;5.05;4.57;;;;;25.90;95787.00;;;;8297083;28;20228;-69
2022/08/17 23:16:01;;;;;;;5.57;4.10;;;;;25.90;95790.00;;;;8297491;28;20256;-69
2022/08/17 23:20:07;;;;;;;4.50;4.20;;;;;25.90;95790.00;;;;8297078;28;20321;-69
2022/08/17 23:24:19;;;;;;;5.60;3.78;;;;;25.90;95809.00;;;;8296601;28;20675;-69
2022/08/17 23:28:22;;;;;;;4.95;4.22;;;;;26.00;95811.00;;;;8296942;28;20217;-69
2022/08/17 23:33:00;;;;;;;6.72;4.43;;;;;25.90;95820.00;;;;8296816;28;20216;-68
2022/08/17 23:37:03;;;;;;;6.72;4.47;;;;;25.80;95827.00;;;;8296265;28;20222;-69
2022/08/17 23:41:13;;;;;;;5.35;4.20;;;;;25.70;95828.00;;;;8296162;28;20710;-69
2022/08/17 23:45:16;;;;;;;4.70;4.25;;;;;25.60;95839.00;;;;8295645;28;20214;-69
2022/08/17 23:49:20;;;;;;;7.43;4.38;;;;;25.50;95839.00;;;;8295568;28;20626;-69
2022/08/17 23:53:24;;;;;;;5.85;4.53;;;;;25.50;95838.00;;;;8296527;28;20308;-70
2022/08/17 23:58:04;;;;;;;4.90;4.28;;;;;25.40;95848.00;;;;8295589;28;20260;-69
